sensor_id;sensor_type;location;lat;lon;timestamp;temperature;humidity
18446;DHT22;9352;50.888;4.466;2022-10-03T00:00:26;10.30;99.90
18446;DHT22;9352;50.888;4.466;2022-10-03T00:03:21;10.30;99.90
18446;DHT22;9352;50.888;4.466;2022-10-03T00:06:04;10.20;99.90
18446;DHT22;9352;50.888;4.466;2022-10-03T00:09:18;10.20;99.90
18446;DHT22;9352;50.888;4.466;2022-10-03T00:12:01;10.20;99.90
18446;DHT22;9352;50.888;4.466;2022-10-03T00:14:38;10.20;99.90
18446;DHT22;9352;50.888;4.466;2022-10-03T00:17:13;10.20;99.90
18446;DHT22;9352;50.888;4.466;2022-10-03T00:19:51;10.20;99.90
18446;DHT22;9352;50.888;4.466;2022-10-03T00:22:29;10.10;99.90
18446;DHT22;9352;50.888;4.466;2022-10-03T00:25:13;10.10;99.90
18446;DHT22;9352;50.888;4.466;2022-10-03T00:27:46;10.10;99.90
18446;DHT22;9352;50.888;4.466;2022-10-03T00:30:18;10.10;99.90
18446;DHT22;9352;50.888;4.466;2022-10-03T00:33:02;10.10;99.90
18446;DHT22;9352;50.888;4.466;2022-10-03T00:35:39;10.00;99.90
18446;DHT22;9352;50.888;4.466;2022-10-03T00:38:23;10.00;99.90
18446;DHT22;9352;50.888;4.466;2022-10-03T00:41:05;10.00;99.90
18446;DHT22;9352;50.888;4.466;2022-10-03T00:44:14;10.00;99.90
18446;DHT22;9352;50.888;4.466;2022-10-03T00:46:57;10.00;99.90
18446;DHT22;9352;50.888;4.466;2022-10-03T00:53:06;9.90;99.90
18446;DHT22;9352;50.888;4.466;2022-10-03T00:55:50;9.90;99.90
18446;DHT22;9352;50.888;4.466;2022-10-03T00:58:34;9.90;99.90
18446;DHT22;9352;50.888;4.466;2022-10-03T01:01:20;9.90;99.90
18446;DHT22;9352;50.888;4.466;2022-10-03T01:03:58;9.90;99.90
18446;DHT22;9352;50.888;4.466;2022-10-03T01:06:34;9.90;99.90
18446;DHT22;9352;50.888;4.466;2022-10-03T01:09:29;9.90;99.90
18446;DHT22;9352;50.888;4.466;2022-10-03T01:12:09;9.90;99.90
18446;DHT22;9352;50.888;4.466;2022-10-03T01:14:57;9.90;99.90
18446;DHT22;9352;50.888;4.466;2022-10-03T01:17:34;9.90;99.90
18446;DHT22;9352;50.888;4.466;2022-10-03T01:20:20;9.90;99.90
18446;DHT22;9352;50.888;4.466;2022-10-03T01:26:04;9.80;99.90
18446;DHT22;9352;50.888;4.466;2022-10-03T01:28:45;9.80;99.90
18446;DHT22;9352;50.888;4.466;2022-10-03T01:31:42;9.80;99.90
18446;DHT22;9352;50.888;4.466;2022-10-03T01:34:18;9.70;99.90
18446;DHT22;9352;50.888;4.466;2022-10-03T01:36:58;9.80;99.90
18446;DHT22;9352;50.888;4.466;2022-10-03T01:39:33;9.80;99.90
18446;DHT22;9352;50.888;4.466;2022-10-03T01:42:06;9.70;99.90
18446;DHT22;9352;50.888;4.466;2022-10-03T01:44:44;9.70;99.90
18446;DHT22;9352;50.888;4.466;2022-10-03T01:47:22;9.70;99.90
18446;DHT22;9352;50.888;4.466;2022-10-03T01:49:56;9.70;99.90
18446;DHT22;9352;50.888;4.466;2022-10-03T01:52:30;9.70;99.90
18446;DHT22;9352;50.888;4.466;2022-10-03T01:55:04;9.70;99.90
18446;DHT22;9352;50.888;4.466;2022-10-03T01:57:36;9.70;99.90
18446;DHT22;9352;50.888;4.466;2022-10-03T02:00:10;9.70;99.90
18446;DHT22;9352;50.888;4.466;2022-10-03T02:02:43;9.70;99.90
18446;DHT22;9352;50.888;4.466;2022-10-03T02:05:16;9.70;99.90
18446;DHT22;9352;50.888;4.466;2022-10-03T02:07:49;9.60;99.90
18446;DHT22;9352;50.888;4.466;2022-10-03T02:10:24;9.60;99.90
18446;DHT22;9352;50.888;4.466;2022-10-03T02:12:59;9.60;99.90
18446;DHT22;9352;50.888;4.466;2022-10-03T02:15:33;9.60;99.90
18446;DHT22;9352;50.888;4.466;2022-10-03T02:18:10;9.60;99.90
18446;DHT22;9352;50.888;4.466;2022-10-03T02:20:44;9.60;99.90
18446;DHT22;9352;50.888;4.466;2022-10-03T02:23:25;9.60;99.90
18446;DHT22;9352;50.888;4.466;2022-10-03T02:29:09;9.60;99.90
18446;DHT22;9352;50.888;4.466;2022-10-03T02:32:28;9.50;99.90
18446;DHT22;9352;50.888;4.466;2022-10-03T02:35:43;9.50;99.90
18446;DHT22;9352;50.888;4.466;2022-10-03T02:38:33;9.50;99.90
18446;DHT22;9352;50.888;4.466;2022-10-03T02:44:34;9.50;99.90
18446;DHT22;9352;50.888;4.466;2022-10-03T02:56:46;9.40;99.90
18446;DHT22;9352;50.888;4.466;2022-10-03T02:59:41;9.40;99.90
18446;DHT22;9352;50.888;4.466;2022-10-03T03:05:26;9.30;99.90
18446;DHT22;9352;50.888;4.466;2022-10-03T03:11:24;9.30;99.90
18446;DHT22;9352;50.888;4.466;2022-10-03T03:14:18;9.20;99.90
18446;DHT22;9352;50.888;4.466;2022-10-03T03:17:00;9.20;99.90
18446;DHT22;9352;50.888;4.466;2022-10-03T03:19:50;9.20;99.90
18446;DHT22;9352;50.888;4.466;2022-10-03T03:22:33;9.20;99.90
18446;DHT22;9352;50.888;4.466;2022-10-03T03:25:20;9.20;99.90
18446;DHT22;9352;50.888;4.466;2022-10-03T03:28:05;9.20;99.90
18446;DHT22;9352;50.888;4.466;2022-10-03T03:30:42;9.20;99.90
18446;DHT22;9352;50.888;4.466;2022-10-03T03:33:20;9.20;99.90
18446;DHT22;9352;50.888;4.466;2022-10-03T03:35:55;9.20;99.90
18446;DHT22;9352;50.888;4.466;2022-10-03T03:38:29;9.20;99.90
18446;DHT22;9352;50.888;4.466;2022-10-03T03:41:09;9.20;99.90
18446;DHT22;9352;50.888;4.466;2022-10-03T03:43:58;9.20;99.90
18446;DHT22;9352;50.888;4.466;2022-10-03T03:46:40;9.20;99.90
18446;DHT22;9352;50.888;4.466;2022-10-03T03:49:22;9.20;99.90
18446;DHT22;9352;50.888;4.466;2022-10-03T03:52:06;9.20;99.90
18446;DHT22;9352;50.888;4.466;2022-10-03T03:57:49;9.10;99.90
18446;DHT22;9352;50.888;4.466;2022-10-03T04:00:29;9.10;99.90
18446;DHT22;9352;50.888;4.466;2022-10-03T04:03:09;9.10;99.90
18446;DHT22;9352;50.888;4.466;2022-10-03T04:05:54;9.10;99.90
18446;DHT22;9352;50.888;4.466;2022-10-03T04:08:40;9.10;99.90
18446;DHT22;9352;50.888;4.466;2022-10-03T04:11:23;9.10;99.90
18446;DHT22;9352;50.888;4.466;2022-10-03T04:14:26;9.10;99.90
18446;DHT22;9352;50.888;4.466;2022-10-03T04:17:13;9.10;99.90
18446;DHT22;9352;50.888;4.466;2022-10-03T04:20:09;9.00;99.90
18446;DHT22;9352;50.888;4.466;2022-10-03T04:22:57;9.00;99.90
18446;DHT22;9352;50.888;4.466;2022-10-03T04:25:39;9.00;99.90
18446;DHT22;9352;50.888;4.466;2022-10-03T04:28:30;9.00;99.90
18446;DHT22;9352;50.888;4.466;2022-10-03T04:31:10;9.10;99.90
18446;DHT22;9352;50.888;4.466;2022-10-03T04:33:58;9.00;99.90
18446;DHT22;9352;50.888;4.466;2022-10-03T04:37:00;9.00;99.90
18446;DHT22;9352;50.888;4.466;2022-10-03T04:39:36;9.00;99.90
18446;DHT22;9352;50.888;4.466;2022-10-03T04:42:15;9.00;99.90
18446;DHT22;9352;50.888;4.466;2022-10-03T04:47:45;9.00;99.90
18446;DHT22;9352;50.888;4.466;2022-10-03T04:50:26;9.00;99.90
18446;DHT22;9352;50.888;4.466;2022-10-03T04:53:04;9.00;99.90
18446;DHT22;9352;50.888;4.466;2022-10-03T04:55:41;9.00;99.90
18446;DHT22;9352;50.888;4.466;2022-10-03T04:58:20;9.00;99.90
18446;DHT22;9352;50.888;4.466;2022-10-03T05:00:56;9.00;99.90
18446;DHT22;9352;50.888;4.466;2022-10-03T05:03:36;9.00;99.90
18446;DHT22;9352;50.888;4.466;2022-10-03T05:06:21;9.00;99.90
18446;DHT22;9352;50.888;4.466;2022-10-03T05:08:56;9.00;99.90
18446;DHT22;9352;50.888;4.466;2022-10-03T05:11:36;9.00;99.90
18446;DHT22;9352;50.888;4.466;2022-10-03T05:14:09;9.00;99.90
18446;DHT22;9352;50.888;4.466;2022-10-03T05:16:41;9.00;99.90
18446;DHT22;9352;50.888;4.466;2022-10-03T05:19:46;9.00;99.90
18446;DHT22;9352;50.888;4.466;2022-10-03T05:22:28;9.00;99.90
18446;DHT22;9352;50.888;4.466;2022-10-03T05:25:03;9.00;99.90
18446;DHT22;9352;50.888;4.466;2022-10-03T05:27:45;9.10;99.90
18446;DHT22;9352;50.888;4.466;2022-10-03T05:30:19;9.10;99.90
18446;DHT22;9352;50.888;4.466;2022-10-03T05:32:53;9.10;99.90
18446;DHT22;9352;50.888;4.466;2022-10-03T05:35:28;9.00;99.90
18446;DHT22;9352;50.888;4.466;2022-10-03T05:38:28;9.00;99.90
18446;DHT22;9352;50.888;4.466;2022-10-03T05:41:06;9.00;99.90
18446;DHT22;9352;50.888;4.466;2022-10-03T05:43:45;9.00;99.90
18446;DHT22;9352;50.888;4.466;2022-10-03T05:46:20;9.00;99.90
18446;DHT22;9352;50.888;4.466;2022-10-03T05:48:52;9.10;99.90
18446;DHT22;9352;50.888;4.466;2022-10-03T05:51:49;9.10;99.90
18446;DHT22;9352;50.888;4.466;2022-10-03T05:54:54;9.10;99.90
18446;DHT22;9352;50.888;4.466;2022-10-03T05:57:58;9.10;99.90
18446;DHT22;9352;50.888;4.466;2022-10-03T06:00:47;9.10;99.90
18446;DHT22;9352;50.888;4.466;2022-10-03T06:03:34;9.20;99.90
18446;DHT22;9352;50.888;4.466;2022-10-03T06:06:23;9.10;99.90
18446;DHT22;9352;50.888;4.466;2022-10-03T06:11:56;9.20;99.90
18446;DHT22;9352;50.888;4.466;2022-10-03T06:17:32;9.20;99.90
18446;DHT22;9352;50.888;4.466;2022-10-03T06:20:21;9.30;99.90
18446;DHT22;9352;50.888;4.466;2022-10-03T06:23:33;9.40;99.90
18446;DHT22;9352;50.888;4.466;2022-10-03T06:26:28;9.40;99.90
18446;DHT22;9352;50.888;4.466;2022-10-03T06:32:22;9.50;99.90
18446;DHT22;9352;50.888;4.466;2022-10-03T06:38:14;9.60;99.90
18446;DHT22;9352;50.888;4.466;2022-10-03T06:41:16;9.60;99.90
18446;DHT22;9352;50.888;4.466;2022-10-03T06:44:19;9.70;99.90
18446;DHT22;9352;50.888;4.466;2022-10-03T06:47:11;9.80;99.90
18446;DHT22;9352;50.888;4.466;2022-10-03T06:53:00;9.90;99.90
18446;DHT22;9352;50.888;4.466;2022-10-03T06:55:55;10.00;99.90
18446;DHT22;9352;50.888;4.466;2022-10-03T07:01:55;10.20;99.90
18446;DHT22;9352;50.888;4.466;2022-10-03T07:04:44;10.30;99.90
18446;DHT22;9352;50.888;4.466;2022-10-03T07:10:48;10.50;99.90
18446;DHT22;9352;50.888;4.466;2022-10-03T07:13:29;10.50;99.90
18446;DHT22;9352;50.888;4.466;2022-10-03T07:16:34;10.70;99.90
18446;DHT22;9352;50.888;4.466;2022-10-03T07:19:35;10.70;99.90
18446;DHT22;9352;50.888;4.466;2022-10-03T07:22:36;10.80;99.90
18446;DHT22;9352;50.888;4.466;2022-10-03T07:25:38;10.90;99.90
18446;DHT22;9352;50.888;4.466;2022-10-03T07:28:24;11.00;99.90
18446;DHT22;9352;50.888;4.466;2022-10-03T07:31:04;11.10;99.90
18446;DHT22;9352;50.888;4.466;2022-10-03T07:34:05;11.10;99.90
18446;DHT22;9352;50.888;4.466;2022-10-03T07:40:29;11.30;99.90
18446;DHT22;9352;50.888;4.466;2022-10-03T07:52:42;11.70;99.90
18446;DHT22;9352;50.888;4.466;2022-10-03T07:55:27;11.80;99.90
18446;DHT22;9352;50.888;4.466;2022-10-03T07:58:14;11.90;99.90
18446;DHT22;9352;50.888;4.466;2022-10-03T08:01:02;12.00;99.90
18446;DHT22;9352;50.888;4.466;2022-10-03T08:04:00;12.10;99.90
18446;DHT22;9352;50.888;4.466;2022-10-03T08:06:37;12.20;99.90
18446;DHT22;9352;50.888;4.466;2022-10-03T08:12:36;12.40;99.90
18446;DHT22;9352;50.888;4.466;2022-10-03T08:15:09;12.60;99.90
18446;DHT22;9352;50.888;4.466;2022-10-03T08:20:50;12.80;99.90
18446;DHT22;9352;50.888;4.466;2022-10-03T08:26:22;13.40;99.90
18446;DHT22;9352;50.888;4.466;2022-10-03T08:38:36;16.10;99.90
18446;DHT22;9352;50.888;4.466;2022-10-03T08:44:39;17.40;99.90
18446;DHT22;9352;50.888;4.466;2022-10-03T08:47:45;17.90;99.90
18446;DHT22;9352;50.888;4.466;2022-10-03T08:53:42;18.30;99.90
18446;DHT22;9352;50.888;4.466;2022-10-03T08:56:14;17.90;99.90
18446;DHT22;9352;50.888;4.466;2022-10-03T09:02:16;17.00;99.90
18446;DHT22;9352;50.888;4.466;2022-10-03T09:08:14;16.30;99.90
18446;DHT22;9352;50.888;4.466;2022-10-03T09:17:00;15.80;99.90
18446;DHT22;9352;50.888;4.466;2022-10-03T09:19:52;15.90;99.90
18446;DHT22;9352;50.888;4.466;2022-10-03T09:25:28;16.50;99.90
18446;DHT22;9352;50.888;4.466;2022-10-03T09:28:19;16.60;99.90
18446;DHT22;9352;50.888;4.466;2022-10-03T09:31:12;16.60;99.90
18446;DHT22;9352;50.888;4.466;2022-10-03T09:37:10;16.50;99.90
18446;DHT22;9352;50.888;4.466;2022-10-03T09:40:12;16.50;99.90
18446;DHT22;9352;50.888;4.466;2022-10-03T09:43:10;16.60;99.90
18446;DHT22;9352;50.888;4.466;2022-10-03T09:46:05;16.60;99.90
18446;DHT22;9352;50.888;4.466;2022-10-03T09:49:09;16.50;99.90
18446;DHT22;9352;50.888;4.466;2022-10-03T09:51:58;16.60;99.90
18446;DHT22;9352;50.888;4.466;2022-10-03T09:55:02;16.60;99.90
18446;DHT22;9352;50.888;4.466;2022-10-03T09:58:03;16.70;99.90
18446;DHT22;9352;50.888;4.466;2022-10-03T10:00:54;16.70;99.90
18446;DHT22;9352;50.888;4.466;2022-10-03T10:06:37;16.70;99.90
18446;DHT22;9352;50.888;4.466;2022-10-03T10:09:29;16.80;99.90
18446;DHT22;9352;50.888;4.466;2022-10-03T10:12:42;16.80;99.90
18446;DHT22;9352;50.888;4.466;2022-10-03T10:15:37;16.90;99.90
18446;DHT22;9352;50.888;4.466;2022-10-03T10:21:41;17.10;99.90
18446;DHT22;9352;50.888;4.466;2022-10-03T10:27:41;17.20;99.90
18446;DHT22;9352;50.888;4.466;2022-10-03T10:30:31;17.20;99.90
18446;DHT22;9352;50.888;4.466;2022-10-03T10:36:42;17.20;99.90
18446;DHT22;9352;50.888;4.466;2022-10-03T10:39:52;17.30;99.90
18446;DHT22;9352;50.888;4.466;2022-10-03T10:45:41;17.40;99.90
18446;DHT22;9352;50.888;4.466;2022-10-03T10:51:47;17.80;99.90
18446;DHT22;9352;50.888;4.466;2022-10-03T11:00:22;17.80;99.90
18446;DHT22;9352;50.888;4.466;2022-10-03T11:06:39;17.70;99.90
18446;DHT22;9352;50.888;4.466;2022-10-03T11:31:08;17.20;99.90
18446;DHT22;9352;50.888;4.466;2022-10-03T11:37:09;17.40;99.90
18446;DHT22;9352;50.888;4.466;2022-10-03T11:39:46;17.40;99.90
18446;DHT22;9352;50.888;4.466;2022-10-03T11:42:25;17.40;99.90
18446;DHT22;9352;50.888;4.466;2022-10-03T11:44:58;17.50;99.90
18446;DHT22;9352;50.888;4.466;2022-10-03T11:47:48;17.50;99.90
18446;DHT22;9352;50.888;4.466;2022-10-03T11:50:26;17.40;99.90
18446;DHT22;9352;50.888;4.466;2022-10-03T11:53:13;17.30;99.90
18446;DHT22;9352;50.888;4.466;2022-10-03T11:55:45;17.30;99.90
18446;DHT22;9352;50.888;4.466;2022-10-03T12:01:33;17.30;99.90
18446;DHT22;9352;50.888;4.466;2022-10-03T12:04:09;17.30;99.90
18446;DHT22;9352;50.888;4.466;2022-10-03T12:06:54;17.30;99.90
18446;DHT22;9352;50.888;4.466;2022-10-03T12:09:54;17.30;99.90
18446;DHT22;9352;50.888;4.466;2022-10-03T12:12:29;17.30;99.90
18446;DHT22;9352;50.888;4.466;2022-10-03T12:15:04;17.40;99.90
18446;DHT22;9352;50.888;4.466;2022-10-03T12:17:42;17.40;99.90
18446;DHT22;9352;50.888;4.466;2022-10-03T12:20:19;17.60;99.90
18446;DHT22;9352;50.888;4.466;2022-10-03T12:22:50;17.80;99.90
18446;DHT22;9352;50.888;4.466;2022-10-03T12:25:21;18.00;99.90
18446;DHT22;9352;50.888;4.466;2022-10-03T12:28:00;18.30;99.90
18446;DHT22;9352;50.888;4.466;2022-10-03T12:30:36;18.70;99.90
18446;DHT22;9352;50.888;4.466;2022-10-03T12:33:20;19.00;99.90
18446;DHT22;9352;50.888;4.466;2022-10-03T12:35:56;19.30;99.90
18446;DHT22;9352;50.888;4.466;2022-10-03T12:38:48;20.00;99.90
18446;DHT22;9352;50.888;4.466;2022-10-03T12:41:28;20.40;99.90
18446;DHT22;9352;50.888;4.466;2022-10-03T12:44:13;20.40;99.90
18446;DHT22;9352;50.888;4.466;2022-10-03T12:46:49;20.50;99.90
18446;DHT22;9352;50.888;4.466;2022-10-03T12:49:27;20.30;99.90
18446;DHT22;9352;50.888;4.466;2022-10-03T12:52:02;20.20;99.90
18446;DHT22;9352;50.888;4.466;2022-10-03T12:54:45;20.00;99.90
18446;DHT22;9352;50.888;4.466;2022-10-03T12:57:38;19.80;99.90
18446;DHT22;9352;50.888;4.466;2022-10-03T13:00:09;19.70;99.90
18446;DHT22;9352;50.888;4.466;2022-10-03T13:02:41;19.70;99.90
18446;DHT22;9352;50.888;4.466;2022-10-03T13:05:39;19.70;99.90
18446;DHT22;9352;50.888;4.466;2022-10-03T13:08:32;19.70;99.90
18446;DHT22;9352;50.888;4.466;2022-10-03T13:11:11;20.00;99.90
18446;DHT22;9352;50.888;4.466;2022-10-03T13:13:51;20.00;99.90
18446;DHT22;9352;50.888;4.466;2022-10-03T13:16:25;20.10;99.90
18446;DHT22;9352;50.888;4.466;2022-10-03T13:19:01;20.00;99.90
18446;DHT22;9352;50.888;4.466;2022-10-03T13:21:52;20.00;99.90
18446;DHT22;9352;50.888;4.466;2022-10-03T13:24:32;20.00;99.90
18446;DHT22;9352;50.888;4.466;2022-10-03T13:30:02;20.20;99.90
18446;DHT22;9352;50.888;4.466;2022-10-03T13:32:32;20.30;99.90
18446;DHT22;9352;50.888;4.466;2022-10-03T13:35:15;20.40;99.90
18446;DHT22;9352;50.888;4.466;2022-10-03T13:41:00;20.40;99.90
18446;DHT22;9352;50.888;4.466;2022-10-03T13:43:33;20.40;99.90
18446;DHT22;9352;50.888;4.466;2022-10-03T13:46:06;20.40;99.90
18446;DHT22;9352;50.888;4.466;2022-10-03T13:48:43;20.30;99.90
18446;DHT22;9352;50.888;4.466;2022-10-03T13:51:20;20.40;99.90
18446;DHT22;9352;50.888;4.466;2022-10-03T13:53:56;20.40;99.90
18446;DHT22;9352;50.888;4.466;2022-10-03T13:56:42;20.30;99.90
18446;DHT22;9352;50.888;4.466;2022-10-03T13:59:28;20.10;99.90
18446;DHT22;9352;50.888;4.466;2022-10-03T14:02:05;20.10;99.90
18446;DHT22;9352;50.888;4.466;2022-10-03T14:04:53;20.10;99.90
18446;DHT22;9352;50.888;4.466;2022-10-03T14:07:30;20.00;99.90
18446;DHT22;9352;50.888;4.466;2022-10-03T14:10:21;20.00;99.90
18446;DHT22;9352;50.888;4.466;2022-10-03T14:13:05;20.00;99.90
18446;DHT22;9352;50.888;4.466;2022-10-03T14:15:45;20.00;99.90
18446;DHT22;9352;50.888;4.466;2022-10-03T14:18:24;20.10;99.90
18446;DHT22;9352;50.888;4.466;2022-10-03T14:21:24;20.00;99.90
18446;DHT22;9352;50.888;4.466;2022-10-03T14:23:59;20.00;99.90
18446;DHT22;9352;50.888;4.466;2022-10-03T14:26:33;20.00;99.90
18446;DHT22;9352;50.888;4.466;2022-10-03T14:29:11;19.90;99.90
18446;DHT22;9352;50.888;4.466;2022-10-03T14:31:47;20.00;99.90
18446;DHT22;9352;50.888;4.466;2022-10-03T14:34:32;20.00;99.90
18446;DHT22;9352;50.888;4.466;2022-10-03T14:37:08;20.00;99.90
18446;DHT22;9352;50.888;4.466;2022-10-03T14:39:42;20.00;99.90
18446;DHT22;9352;50.888;4.466;2022-10-03T14:42:30;20.00;99.90
18446;DHT22;9352;50.888;4.466;2022-10-03T14:45:00;19.90;99.90
18446;DHT22;9352;50.888;4.466;2022-10-03T14:47:34;19.80;99.90
18446;DHT22;9352;50.888;4.466;2022-10-03T14:50:04;19.80;99.90
18446;DHT22;9352;50.888;4.466;2022-10-03T14:52:36;19.80;99.90
18446;DHT22;9352;50.888;4.466;2022-10-03T14:55:12;19.70;99.90
18446;DHT22;9352;50.888;4.466;2022-10-03T14:57:44;19.80;99.90
18446;DHT22;9352;50.888;4.466;2022-10-03T15:00:23;19.80;99.90
18446;DHT22;9352;50.888;4.466;2022-10-03T15:02:50;19.80;99.90
18446;DHT22;9352;50.888;4.466;2022-10-03T15:05:28;19.90;99.90
18446;DHT22;9352;50.888;4.466;2022-10-03T15:07:58;20.20;99.90
18446;DHT22;9352;50.888;4.466;2022-10-03T15:10:27;21.00;99.90
18446;DHT22;9352;50.888;4.466;2022-10-03T15:13:01;21.60;99.90
18446;DHT22;9352;50.888;4.466;2022-10-03T15:15:32;21.70;99.90
18446;DHT22;9352;50.888;4.466;2022-10-03T15:18:01;21.40;99.90
18446;DHT22;9352;50.888;4.466;2022-10-03T15:20:35;21.00;99.90
18446;DHT22;9352;50.888;4.466;2022-10-03T15:23:04;20.60;99.90
18446;DHT22;9352;50.888;4.466;2022-10-03T15:25:34;20.30;99.90
18446;DHT22;9352;50.888;4.466;2022-10-03T15:28:04;20.00;99.90
18446;DHT22;9352;50.888;4.466;2022-10-03T15:30:34;19.70;99.90
18446;DHT22;9352;50.888;4.466;2022-10-03T15:33:06;19.50;99.90
18446;DHT22;9352;50.888;4.466;2022-10-03T15:35:39;19.30;99.90
18446;DHT22;9352;50.888;4.466;2022-10-03T15:38:11;19.30;99.90
18446;DHT22;9352;50.888;4.466;2022-10-03T15:40:45;19.30;99.90
18446;DHT22;9352;50.888;4.466;2022-10-03T15:43:30;19.40;99.90
18446;DHT22;9352;50.888;4.466;2022-10-03T15:45:58;19.30;99.90
18446;DHT22;9352;50.888;4.466;2022-10-03T15:48:26;19.20;99.90
18446;DHT22;9352;50.888;4.466;2022-10-03T15:50:56;18.90;99.90
18446;DHT22;9352;50.888;4.466;2022-10-03T15:53:28;18.60;99.90
18446;DHT22;9352;50.888;4.466;2022-10-03T15:56:08;18.40;99.90
18446;DHT22;9352;50.888;4.466;2022-10-03T15:58:40;18.30;99.90
18446;DHT22;9352;50.888;4.466;2022-10-03T16:01:12;18.10;99.90
18446;DHT22;9352;50.888;4.466;2022-10-03T16:03:44;17.80;99.90
18446;DHT22;9352;50.888;4.466;2022-10-03T16:06:19;17.70;99.90
18446;DHT22;9352;50.888;4.466;2022-10-03T16:08:56;17.50;99.90
18446;DHT22;9352;50.888;4.466;2022-10-03T16:11:26;17.30;99.90
18446;DHT22;9352;50.888;4.466;2022-10-03T16:14:09;17.20;99.90
18446;DHT22;9352;50.888;4.466;2022-10-03T16:16:41;17.10;99.90
18446;DHT22;9352;50.888;4.466;2022-10-03T16:19:28;17.10;99.90
18446;DHT22;9352;50.888;4.466;2022-10-03T16:22:08;17.00;99.90
18446;DHT22;9352;50.888;4.466;2022-10-03T16:24:41;16.90;99.90
18446;DHT22;9352;50.888;4.466;2022-10-03T16:27:13;16.80;99.90
18446;DHT22;9352;50.888;4.466;2022-10-03T16:29:45;16.70;99.90
18446;DHT22;9352;50.888;4.466;2022-10-03T16:32:16;16.60;99.90
18446;DHT22;9352;50.888;4.466;2022-10-03T16:34:45;16.50;99.90
18446;DHT22;9352;50.888;4.466;2022-10-03T16:37:18;16.50;99.90
18446;DHT22;9352;50.888;4.466;2022-10-03T16:39:53;16.40;99.90
18446;DHT22;9352;50.888;4.466;2022-10-03T16:42:22;16.30;99.90
18446;DHT22;9352;50.888;4.466;2022-10-03T16:44:53;16.20;99.90
18446;DHT22;9352;50.888;4.466;2022-10-03T16:47:32;16.10;99.90
18446;DHT22;9352;50.888;4.466;2022-10-03T16:50:00;15.90;99.90
18446;DHT22;9352;50.888;4.466;2022-10-03T16:52:48;15.80;99.90
18446;DHT22;9352;50.888;4.466;2022-10-03T16:55:19;15.70;99.90
18446;DHT22;9352;50.888;4.466;2022-10-03T16:57:51;15.60;99.90
18446;DHT22;9352;50.888;4.466;2022-10-03T17:00:23;15.50;99.90
18446;DHT22;9352;50.888;4.466;2022-10-03T17:02:55;15.40;99.90
18446;DHT22;9352;50.888;4.466;2022-10-03T17:05:22;15.30;99.90
18446;DHT22;9352;50.888;4.466;2022-10-03T17:07:53;15.20;99.90
18446;DHT22;9352;50.888;4.466;2022-10-03T17:10:33;15.10;99.90
18446;DHT22;9352;50.888;4.466;2022-10-03T17:13:05;15.00;99.90
18446;DHT22;9352;50.888;4.466;2022-10-03T17:15:43;14.90;99.90
18446;DHT22;9352;50.888;4.466;2022-10-03T17:18:19;14.80;99.90
18446;DHT22;9352;50.888;4.466;2022-10-03T17:20:49;14.70;99.90
18446;DHT22;9352;50.888;4.466;2022-10-03T17:23:30;14.60;99.90
18446;DHT22;9352;50.888;4.466;2022-10-03T17:26:03;14.50;99.90
18446;DHT22;9352;50.888;4.466;2022-10-03T17:28:39;14.40;99.90
18446;DHT22;9352;50.888;4.466;2022-10-03T17:31:22;14.40;99.90
18446;DHT22;9352;50.888;4.466;2022-10-03T17:33:53;14.30;99.90
18446;DHT22;9352;50.888;4.466;2022-10-03T17:39:26;14.10;99.90
18446;DHT22;9352;50.888;4.466;2022-10-03T17:42:00;14.00;99.90
18446;DHT22;9352;50.888;4.466;2022-10-03T17:44:35;13.90;99.90
18446;DHT22;9352;50.888;4.466;2022-10-03T17:47:12;13.90;99.90
18446;DHT22;9352;50.888;4.466;2022-10-03T17:49:48;13.80;99.90
18446;DHT22;9352;50.888;4.466;2022-10-03T17:52:18;13.80;99.90
18446;DHT22;9352;50.888;4.466;2022-10-03T17:54:50;13.70;99.90
18446;DHT22;9352;50.888;4.466;2022-10-03T17:57:23;13.70;99.90
18446;DHT22;9352;50.888;4.466;2022-10-03T17:59:58;13.60;99.90
18446;DHT22;9352;50.888;4.466;2022-10-03T18:02:34;13.60;99.90
18446;DHT22;9352;50.888;4.466;2022-10-03T18:05:10;13.60;99.90
18446;DHT22;9352;50.888;4.466;2022-10-03T18:07:39;13.50;99.90
18446;DHT22;9352;50.888;4.466;2022-10-03T18:10:18;13.50;99.90
18446;DHT22;9352;50.888;4.466;2022-10-03T18:12:48;13.40;99.90
18446;DHT22;9352;50.888;4.466;2022-10-03T18:15:38;13.40;99.90
18446;DHT22;9352;50.888;4.466;2022-10-03T18:21:07;13.30;99.90
18446;DHT22;9352;50.888;4.466;2022-10-03T18:23:50;13.30;99.90
18446;DHT22;9352;50.888;4.466;2022-10-03T18:26:25;13.30;99.90
18446;DHT22;9352;50.888;4.466;2022-10-03T18:29:01;13.20;99.90
18446;DHT22;9352;50.888;4.466;2022-10-03T18:31:37;13.20;99.90
18446;DHT22;9352;50.888;4.466;2022-10-03T18:34:12;13.20;99.90
18446;DHT22;9352;50.888;4.466;2022-10-03T18:36:46;13.20;99.90
18446;DHT22;9352;50.888;4.466;2022-10-03T18:39:16;13.20;99.90
18446;DHT22;9352;50.888;4.466;2022-10-03T18:41:47;13.30;99.90
18446;DHT22;9352;50.888;4.466;2022-10-03T18:44:17;13.20;99.90
18446;DHT22;9352;50.888;4.466;2022-10-03T18:46:45;13.30;99.90
18446;DHT22;9352;50.888;4.466;2022-10-03T18:49:20;13.30;99.90
18446;DHT22;9352;50.888;4.466;2022-10-03T18:51:54;13.20;99.90
18446;DHT22;9352;50.888;4.466;2022-10-03T18:54:33;13.20;99.90
18446;DHT22;9352;50.888;4.466;2022-10-03T18:57:07;13.10;99.90
18446;DHT22;9352;50.888;4.466;2022-10-03T18:59:44;13.00;99.90
18446;DHT22;9352;50.888;4.466;2022-10-03T19:02:17;13.00;99.90
18446;DHT22;9352;50.888;4.466;2022-10-03T19:04:51;13.00;99.90
18446;DHT22;9352;50.888;4.466;2022-10-03T19:07:22;12.90;99.90
18446;DHT22;9352;50.888;4.466;2022-10-03T19:10:17;12.80;99.90
18446;DHT22;9352;50.888;4.466;2022-10-03T19:12:53;12.80;99.90
18446;DHT22;9352;50.888;4.466;2022-10-03T19:15:30;12.80;99.90
18446;DHT22;9352;50.888;4.466;2022-10-03T19:18:09;12.80;99.90
18446;DHT22;9352;50.888;4.466;2022-10-03T19:20:43;12.70;99.90
18446;DHT22;9352;50.888;4.466;2022-10-03T19:23:14;12.70;99.90
18446;DHT22;9352;50.888;4.466;2022-10-03T19:25:52;12.60;99.90
18446;DHT22;9352;50.888;4.466;2022-10-03T19:28:27;12.60;99.90
18446;DHT22;9352;50.888;4.466;2022-10-03T19:30:59;12.60;99.90
18446;DHT22;9352;50.888;4.466;2022-10-03T19:33:30;12.50;99.90
18446;DHT22;9352;50.888;4.466;2022-10-03T19:36:02;12.50;99.90
18446;DHT22;9352;50.888;4.466;2022-10-03T19:38:32;12.40;99.90
18446;DHT22;9352;50.888;4.466;2022-10-03T19:41:11;12.40;99.90
18446;DHT22;9352;50.888;4.466;2022-10-03T19:43:43;12.40;99.90
18446;DHT22;9352;50.888;4.466;2022-10-03T19:49:24;12.30;99.90
18446;DHT22;9352;50.888;4.466;2022-10-03T19:52:14;12.30;99.90
18446;DHT22;9352;50.888;4.466;2022-10-03T19:55:00;12.30;99.90
18446;DHT22;9352;50.888;4.466;2022-10-03T19:57:41;12.20;99.90
18446;DHT22;9352;50.888;4.466;2022-10-03T20:00:25;12.20;99.90
18446;DHT22;9352;50.888;4.466;2022-10-03T20:02:55;12.20;99.90
18446;DHT22;9352;50.888;4.466;2022-10-03T20:05:25;12.20;99.90
18446;DHT22;9352;50.888;4.466;2022-10-03T20:08:01;12.20;99.90
18446;DHT22;9352;50.888;4.466;2022-10-03T20:10:54;12.20;99.90
18446;DHT22;9352;50.888;4.466;2022-10-03T20:13:24;12.10;99.90
18446;DHT22;9352;50.888;4.466;2022-10-03T20:15:56;12.10;99.90
18446;DHT22;9352;50.888;4.466;2022-10-03T20:18:24;12.10;99.90
18446;DHT22;9352;50.888;4.466;2022-10-03T20:20:53;12.10;99.90